sensor_id;sensor_type;location;lat;lon;timestamp;pressure;altitude;pressure_sealevel;temperature;humidity
40075;BME280;26529;51.530;11.754;2023-03-03T00:01:30;100703.22;;;19.48;44.19
40075;BME280;26529;51.530;11.754;2023-03-03T00:03:57;100701.47;;;19.47;44.25
40075;BME280;26529;51.530;11.754;2023-03-03T00:06:23;100705.00;;;19.48;44.26
40075;BME280;26529;51.530;11.754;2023-03-03T00:08:49;100707.84;;;19.45;44.35
40075;BME280;26529;51.530;11.754;2023-03-03T00:11:14;100700.72;;;19.45;44.27
40075;BME280;26529;51.530;11.754;2023-03-03T00:13:49;100703.38;;;19.45;44.33
40075;BME280;26529;51.530;11.754;2023-03-03T00:16:24;100698.94;;;19.46;44.31
40075;BME280;26529;51.530;11.754;2023-03-03T00:18:51;100699.09;;;19.43;44.40
40075;BME280;26529;51.530;11.754;2023-03-03T00:21:30;100699.09;;;19.43;44.19
40075;BME280;26529;51.530;11.754;2023-03-03T00:26:41;100705.38;;;19.42;44.28
40075;BME280;26529;51.530;11.754;2023-03-03T00:29:26;100708.91;;;19.42;44.45
40075;BME280;26529;51.530;11.754;2023-03-03T00:31:51;100701.84;;;19.41;44.44
40075;BME280;26529;51.530;11.754;2023-03-03T00:36:43;100701.00;;;19.41;44.25
40075;BME280;26529;51.530;11.754;2023-03-03T00:39:21;100707.16;;;19.41;44.30
40075;BME280;26529;51.530;11.754;2023-03-03T00:41:49;100698.41;;;19.39;44.37
40075;BME280;26529;51.530;11.754;2023-03-03T00:44:42;100699.38;;;19.38;44.31
40075;BME280;26529;51.530;11.754;2023-03-03T00:47:38;100698.41;;;19.39;44.30
40075;BME280;26529;51.530;11.754;2023-03-03T00:52:37;100703.94;;;19.36;44.32
40075;BME280;26529;51.530;11.754;2023-03-03T00:55:04;100705.63;;;19.37;44.45
40075;BME280;26529;51.530;11.754;2023-03-03T00:57:30;100706.59;;;19.36;44.45
40075;BME280;26529;51.530;11.754;2023-03-03T00:59:56;100703.94;;;19.36;44.30
40075;BME280;26529;51.530;11.754;2023-03-03T01:02:22;100703.94;;;19.36;44.26
40075;BME280;26529;51.530;11.754;2023-03-03T01:04:50;100700.47;;;19.34;44.38
40075;BME280;26529;51.530;11.754;2023-03-03T01:07:17;100705.78;;;19.34;44.37
40075;BME280;26529;51.530;11.754;2023-03-03T01:09:43;100709.25;;;19.36;44.33
40075;BME280;26529;51.530;11.754;2023-03-03T01:12:09;100710.19;;;19.35;44.30
40075;BME280;26529;51.530;11.754;2023-03-03T01:14:35;100712.00;;;19.34;44.32
40075;BME280;26529;51.530;11.754;2023-03-03T01:17:01;100709.41;;;19.33;44.38
40075;BME280;26529;51.530;11.754;2023-03-03T01:19:27;100710.34;;;19.32;44.39
40075;BME280;26529;51.530;11.754;2023-03-03T01:21:52;100708.56;;;19.32;44.39
40075;BME280;26529;51.530;11.754;2023-03-03T01:24:17;100705.03;;;19.32;44.31
40075;BME280;26529;51.530;11.754;2023-03-03T01:26:43;100721.88;;;19.32;44.29
40075;BME280;26529;51.530;11.754;2023-03-03T01:29:08;100720.22;;;19.30;44.36
40075;BME280;26529;51.530;11.754;2023-03-03T01:31:34;100720.22;;;19.30;44.35
40075;BME280;26529;51.530;11.754;2023-03-03T01:33:59;100709.59;;;19.30;44.37
40075;BME280;26529;51.530;11.754;2023-03-03T01:36:26;100707.88;;;19.29;44.40
40075;BME280;26529;51.530;11.754;2023-03-03T01:38:52;100707.09;;;19.27;44.38
40075;BME280;26529;51.530;11.754;2023-03-03T01:41:18;100706.16;;;19.28;44.31
40075;BME280;26529;51.530;11.754;2023-03-03T01:43:48;100704.44;;;19.27;44.41
40075;BME280;26529;51.530;11.754;2023-03-03T01:48:57;100684.88;;;19.28;44.40
40075;BME280;26529;51.530;11.754;2023-03-03T01:51:42;100686.63;;;19.29;44.53
40075;BME280;26529;51.530;11.754;2023-03-03T01:54:21;100684.13;;;19.25;44.50
40075;BME280;26529;51.530;11.754;2023-03-03T01:56:49;100683.16;;;19.27;44.38
40075;BME280;26529;51.530;11.754;2023-03-03T01:59:22;100681.47;;;19.25;44.36
40075;BME280;26529;51.530;11.754;2023-03-03T02:01:51;100685.06;;;19.24;44.26
40075;BME280;26529;51.530;11.754;2023-03-03T02:04:17;100690.38;;;19.24;44.43
40075;BME280;26529;51.530;11.754;2023-03-03T02:06:50;100679.75;;;19.24;44.55
40075;BME280;26529;51.530;11.754;2023-03-03T02:09:23;100686.03;;;19.23;44.38
40075;BME280;26529;51.530;11.754;2023-03-03T02:11:54;100689.53;;;19.24;44.50
40075;BME280;26529;51.530;11.754;2023-03-03T02:14:23;100686.97;;;19.22;44.32
40075;BME280;26529;51.530;11.754;2023-03-03T02:16:49;100686.09;;;19.22;44.34
40075;BME280;26529;51.530;11.754;2023-03-03T02:19:28;100682.59;;;19.21;44.41
40075;BME280;26529;51.530;11.754;2023-03-03T02:21:55;100676.34;;;19.22;44.40
40075;BME280;26529;51.530;11.754;2023-03-03T02:24:26;100674.50;;;19.23;44.40
40075;BME280;26529;51.530;11.754;2023-03-03T02:26:54;100680.78;;;19.22;44.34
40075;BME280;26529;51.530;11.754;2023-03-03T02:29:20;100692.28;;;19.22;44.41
40075;BME280;26529;51.530;11.754;2023-03-03T02:31:46;100687.06;;;19.21;44.38
40075;BME280;26529;51.530;11.754;2023-03-03T02:34:11;100694.16;;;19.20;44.47
40075;BME280;26529;51.530;11.754;2023-03-03T02:36:39;100700.41;;;19.19;44.66
40075;BME280;26529;51.530;11.754;2023-03-03T02:39:31;100684.47;;;19.19;44.49
40075;BME280;26529;51.530;11.754;2023-03-03T02:42:07;100703.94;;;19.20;44.45
40075;BME280;26529;51.530;11.754;2023-03-03T02:44:40;100695.19;;;19.18;44.40
40075;BME280;26529;51.530;11.754;2023-03-03T02:47:05;100696.94;;;19.19;44.30
40075;BME280;26529;51.530;11.754;2023-03-03T02:49:33;100696.81;;;19.20;44.38
40075;BME280;26529;51.530;11.754;2023-03-03T02:52:00;100689.88;;;19.18;44.41
40075;BME280;26529;51.530;11.754;2023-03-03T02:54:28;100694.34;;;19.17;44.41
40075;BME280;26529;51.530;11.754;2023-03-03T02:56:56;100692.63;;;19.16;44.36
40075;BME280;26529;51.530;11.754;2023-03-03T02:59:22;100704.97;;;19.17;44.47
40075;BME280;26529;51.530;11.754;2023-03-03T03:01:50;100694.34;;;19.17;44.52
40075;BME280;26529;51.530;11.754;2023-03-03T03:04:21;100704.22;;;19.15;44.54
40075;BME280;26529;51.530;11.754;2023-03-03T03:06:48;100709.44;;;19.17;44.56
40075;BME280;26529;51.530;11.754;2023-03-03T03:09:16;100713.91;;;19.16;44.50
40075;BME280;26529;51.530;11.754;2023-03-03T03:11:43;100711.31;;;19.15;44.54
40075;BME280;26529;51.530;11.754;2023-03-03T03:14:11;100700.69;;;19.15;44.41
40075;BME280;26529;51.530;11.754;2023-03-03T03:16:38;100696.25;;;19.15;44.49
40075;BME280;26529;51.530;11.754;2023-03-03T03:19:04;100695.44;;;19.13;44.32
40075;BME280;26529;51.530;11.754;2023-03-03T03:21:31;100691.09;;;19.12;44.56
40075;BME280;26529;51.530;11.754;2023-03-03T03:23:58;100699.81;;;19.14;44.42
40075;BME280;26529;51.530;11.754;2023-03-03T03:26:24;100712.34;;;19.12;44.34
40075;BME280;26529;51.530;11.754;2023-03-03T03:28:50;100702.59;;;19.13;44.43
40075;BME280;26529;51.530;11.754;2023-03-03T03:31:17;100696.41;;;19.12;44.45
40075;BME280;26529;51.530;11.754;2023-03-03T03:33:44;100682.34;;;19.10;44.51
40075;BME280;26529;51.530;11.754;2023-03-03T03:36:11;100685.78;;;19.12;44.37
40075;BME280;26529;51.530;11.754;2023-03-03T03:38:37;100677.03;;;19.10;44.57
40075;BME280;26529;51.530;11.754;2023-03-03T03:41:05;100684.94;;;19.11;44.36
40075;BME280;26529;51.530;11.754;2023-03-03T03:43:31;100684.06;;;19.11;44.44
40075;BME280;26529;51.530;11.754;2023-03-03T03:45:58;100680.47;;;19.12;44.53
40075;BME280;26529;51.530;11.754;2023-03-03T03:48:24;100681.41;;;19.11;44.40
40075;BME280;26529;51.530;11.754;2023-03-03T03:50:50;100687.75;;;19.08;44.35
40075;BME280;26529;51.530;11.754;2023-03-03T03:53:16;100692.97;;;19.10;44.54
40075;BME280;26529;51.530;11.754;2023-03-03T03:55:43;100698.31;;;19.10;44.48
40075;BME280;26529;51.530;11.754;2023-03-03T03:58:14;100688.63;;;19.09;44.52
40075;BME280;26529;51.530;11.754;2023-03-03T04:00:42;100696.59;;;19.09;44.45
40075;BME280;26529;51.530;11.754;2023-03-03T04:03:08;100705.50;;;19.08;44.61
40075;BME280;26529;51.530;11.754;2023-03-03T04:05:35;100705.50;;;19.08;44.49
40075;BME280;26529;51.530;11.754;2023-03-03T04:08:02;100699.31;;;19.07;44.54
40075;BME280;26529;51.530;11.754;2023-03-03T04:10:28;100718.00;;;19.06;44.48
40075;BME280;26529;51.530;11.754;2023-03-03T04:12:54;100711.75;;;19.07;44.60
40075;BME280;26529;51.530;11.754;2023-03-03T04:15:20;100720.66;;;19.06;44.69
40075;BME280;26529;51.530;11.754;2023-03-03T04:17:46;100712.69;;;19.06;44.23
40075;BME280;26529;51.530;11.754;2023-03-03T04:20:14;100701.13;;;19.07;44.54
40075;BME280;26529;51.530;11.754;2023-03-03T04:22:42;100707.38;;;19.06;44.48
40075;BME280;26529;51.530;11.754;2023-03-03T04:25:11;100710.97;;;19.05;44.60
40075;BME280;26529;51.530;11.754;2023-03-03T04:27:40;100708.25;;;19.06;44.46
40075;BME280;26529;51.530;11.754;2023-03-03T04:30:08;100716.31;;;19.05;44.61
40075;BME280;26529;51.530;11.754;2023-03-03T04:32:36;100705.66;;;19.05;44.46
40075;BME280;26529;51.530;11.754;2023-03-03T04:35:04;100725.22;;;19.04;44.48
40075;BME280;26529;51.530;11.754;2023-03-03T04:37:32;100720.84;;;19.03;44.54
40075;BME280;26529;51.530;11.754;2023-03-03T05:35:14;100764.63;;;18.95;44.63
40075;BME280;26529;51.530;11.754;2023-03-03T05:37:40;100757.59;;;18.94;44.59
40075;BME280;26529;51.530;11.754;2023-03-03T05:40:12;100739.91;;;18.93;44.43
40075;BME280;26529;51.530;11.754;2023-03-03T05:42:38;100750.53;;;18.93;44.53
40075;BME280;26529;51.530;11.754;2023-03-03T05:45:04;100753.19;;;18.93;44.71
40075;BME280;26529;51.530;11.754;2023-03-03T05:47:30;100756.72;;;18.94;44.56
40075;BME280;26529;51.530;11.754;2023-03-03T05:49:55;100771.81;;;18.93;44.54
40075;BME280;26529;51.530;11.754;2023-03-03T05:52:21;100761.19;;;18.93;44.63
40075;BME280;26529;51.530;11.754;2023-03-03T05:54:48;100761.19;;;18.93;44.41
40075;BME280;26529;51.530;11.754;2023-03-03T05:57:13;100769.25;;;18.92;44.56
40075;BME280;26529;51.530;11.754;2023-03-03T05:59:39;100760.34;;;18.93;44.57
40075;BME280;26529;51.530;11.754;2023-03-03T06:02:05;100756.03;;;18.90;44.67
40075;BME280;26529;51.530;11.754;2023-03-03T06:04:30;100758.63;;;18.92;44.60
40075;BME280;26529;51.530;11.754;2023-03-03T06:06:56;100752.44;;;18.91;44.44
40075;BME280;26529;51.530;11.754;2023-03-03T06:09:21;100756.03;;;18.90;44.67
40075;BME280;26529;51.530;11.754;2023-03-03T06:11:47;100764.00;;;18.90;44.54
40075;BME280;26529;51.530;11.754;2023-03-03T06:14:12;100763.25;;;18.88;44.57
40075;BME280;26529;51.530;11.754;2023-03-03T06:16:38;100772.00;;;18.90;44.57
40075;BME280;26529;51.530;11.754;2023-03-03T06:19:03;100775.41;;;18.92;44.49
40075;BME280;26529;51.530;11.754;2023-03-03T06:21:29;100780.78;;;18.91;44.59
40075;BME280;26529;51.530;11.754;2023-03-03T06:23:55;100777.31;;;18.90;44.54
40075;BME280;26529;51.530;11.754;2023-03-03T06:26:20;100772.94;;;18.89;44.62
40075;BME280;26529;51.530;11.754;2023-03-03T06:28:46;100773.88;;;18.88;44.65
40075;BME280;26529;51.530;11.754;2023-03-03T06:31:12;100779.19;;;18.88;44.59
40075;BME280;26529;51.530;11.754;2023-03-03T06:33:37;100781.84;;;18.88;44.51
40075;BME280;26529;51.530;11.754;2023-03-03T06:36:03;100787.16;;;18.88;44.65
40075;BME280;26529;51.530;11.754;2023-03-03T06:38:29;100802.31;;;18.86;44.66
40075;BME280;26529;51.530;11.754;2023-03-03T06:40:54;100797.00;;;18.86;44.51
40075;BME280;26529;51.530;11.754;2023-03-03T06:43:20;100811.06;;;18.88;44.52
40075;BME280;26529;51.530;11.754;2023-03-03T06:45:45;100811.06;;;18.88;44.53
40075;BME280;26529;51.530;11.754;2023-03-03T06:48:11;100795.13;;;18.88;44.60
40075;BME280;26529;51.530;11.754;2023-03-03T06:50:36;100797.69;;;18.90;44.51
40075;BME280;26529;51.530;11.754;2023-03-03T06:53:13;100791.97;;;18.97;44.42
40075;BME280;26529;51.530;11.754;2023-03-03T06:55:39;100794.44;;;19.01;44.36
40075;BME280;26529;51.530;11.754;2023-03-03T06:58:11;100794.31;;;19.04;44.31
40075;BME280;26529;51.530;11.754;2023-03-03T07:00:40;100794.25;;;19.05;44.37
40075;BME280;26529;51.530;11.754;2023-03-03T07:03:21;100794.66;;;19.14;44.15
40075;BME280;26529;51.530;11.754;2023-03-03T07:05:47;100793.81;;;19.13;44.13
40075;BME280;26529;51.530;11.754;2023-03-03T07:08:21;100803.66;;;19.11;44.10
40075;BME280;26529;51.530;11.754;2023-03-03T07:10:48;100806.31;;;19.11;44.11
40075;BME280;26529;51.530;11.754;2023-03-03T07:13:27;100804.63;;;19.10;43.88
40075;BME280;26529;51.530;11.754;2023-03-03T07:15:55;100809.16;;;19.08;43.95
40075;BME280;26529;51.530;11.754;2023-03-03T07:21:12;100820.38;;;19.13;43.90
40075;BME280;26529;51.530;11.754;2023-03-03T07:23:39;100818.53;;;19.15;43.84
40075;BME280;26529;51.530;11.754;2023-03-03T07:26:16;100822.97;;;19.15;43.67
40075;BME280;26529;51.530;11.754;2023-03-03T07:31:40;100837.88;;;19.17;43.87
40075;BME280;26529;51.530;11.754;2023-03-03T07:34:35;100841.31;;;19.19;44.06
40075;BME280;26529;51.530;11.754;2023-03-03T07:37:09;100851.88;;;19.21;44.02
40075;BME280;26529;51.530;11.754;2023-03-03T07:39:38;100848.25;;;19.22;44.21
40075;BME280;26529;51.530;11.754;2023-03-03T07:44:35;100848.19;;;19.23;44.23
40075;BME280;26529;51.530;11.754;2023-03-03T07:47:18;100846.47;;;19.22;44.37
40075;BME280;26529;51.530;11.754;2023-03-03T07:49:46;100845.53;;;19.23;44.21
40075;BME280;26529;51.530;11.754;2023-03-03T07:52:30;100841.31;;;19.19;44.42
40075;BME280;26529;51.530;11.754;2023-03-03T07:55:34;100848.84;;;19.11;44.52
40075;BME280;26529;51.530;11.754;2023-03-03T07:58:21;100857.91;;;19.07;44.42
40075;BME280;26529;51.530;11.754;2023-03-03T08:03:51;100849.34;;;19.02;44.56
40075;BME280;26529;51.530;11.754;2023-03-03T08:11:50;100851.38;;;18.96;44.59
40075;BME280;26529;51.530;11.754;2023-03-03T08:14:25;100860.28;;;18.95;44.68
40075;BME280;26529;51.530;11.754;2023-03-03T08:16:51;100862.00;;;18.96;44.54
40075;BME280;26529;51.530;11.754;2023-03-03T08:19:17;100861.25;;;18.94;44.67
40075;BME280;26529;51.530;11.754;2023-03-03T08:21:43;100857.72;;;18.94;44.44
40075;BME280;26529;51.530;11.754;2023-03-03T08:24:08;100865.69;;;18.94;44.63
40075;BME280;26529;51.530;11.754;2023-03-03T08:26:34;100852.47;;;18.92;44.56
40075;BME280;26529;51.530;11.754;2023-03-03T08:29:00;100854.28;;;18.92;44.51
40075;BME280;26529;51.530;11.754;2023-03-03T08:31:26;100853.41;;;18.91;44.57
40075;BME280;26529;51.530;11.754;2023-03-03T08:33:52;100843.72;;;18.90;44.57
40075;BME280;26529;51.530;11.754;2023-03-03T08:36:18;100842.00;;;18.89;44.62
40075;BME280;26529;51.530;11.754;2023-03-03T08:38:43;100845.50;;;18.90;44.54
40075;BME280;26529;51.530;11.754;2023-03-03T08:41:09;100848.09;;;18.91;44.64
40075;BME280;26529;51.530;11.754;2023-03-03T08:43:35;100848.16;;;18.90;44.56
40075;BME280;26529;51.530;11.754;2023-03-03T08:46:02;100846.47;;;18.89;44.53
40075;BME280;26529;51.530;11.754;2023-03-03T08:48:30;100852.66;;;18.89;44.62
40075;BME280;26529;51.530;11.754;2023-03-03T08:50:56;100850.94;;;18.88;44.49
40075;BME280;26529;51.530;11.754;2023-03-03T08:53:22;100845.63;;;18.88;44.54
40075;BME280;26529;51.530;11.754;2023-03-03T08:55:48;100846.53;;;18.87;44.50
40075;BME280;26529;51.530;11.754;2023-03-03T08:58:14;100858.78;;;18.90;44.55
40075;BME280;26529;51.530;11.754;2023-03-03T09:00:40;100859.81;;;18.87;44.31
40075;BME280;26529;51.530;11.754;2023-03-03T09:03:06;100854.44;;;18.89;44.38
40075;BME280;26529;51.530;11.754;2023-03-03T09:05:34;100861.72;;;18.85;44.52
40075;BME280;26529;51.530;11.754;2023-03-03T09:08:00;100855.44;;;18.86;44.48
40075;BME280;26529;51.530;11.754;2023-03-03T09:10:27;100865.25;;;18.85;44.53
40075;BME280;26529;51.530;11.754;2023-03-03T09:12:56;100857.16;;;18.87;44.62
40075;BME280;26529;51.530;11.754;2023-03-03T09:15:28;100857.34;;;18.84;44.48
40075;BME280;26529;51.530;11.754;2023-03-03T09:18:08;100852.03;;;18.84;44.54
40075;BME280;26529;51.530;11.754;2023-03-03T09:20:46;100859.06;;;18.85;44.54
40075;BME280;26529;51.530;11.754;2023-03-03T09:26:28;100859.06;;;18.85;44.34
40075;BME280;26529;51.530;11.754;2023-03-03T09:31:42;100869.69;;;18.85;44.49
40075;BME280;26529;51.530;11.754;2023-03-03T09:34:17;100875.00;;;18.85;44.51
40075;BME280;26529;51.530;11.754;2023-03-03T09:36:44;100869.53;;;18.88;44.37
40075;BME280;26529;51.530;11.754;2023-03-03T09:39:24;100872.34;;;18.85;44.41
40075;BME280;26529;51.530;11.754;2023-03-03T09:50:21;100874.03;;;18.86;44.53
40075;BME280;26529;51.530;11.754;2023-03-03T09:55:46;100866.25;;;18.83;44.52
40075;BME280;26529;51.530;11.754;2023-03-03T09:58:29;100875.00;;;18.85;44.33
40075;BME280;26529;51.530;11.754;2023-03-03T10:09:56;100873.47;;;18.81;44.44
40075;BME280;26529;51.530;11.754;2023-03-03T10:14:44;100875.16;;;18.82;44.48
40075;BME280;26529;51.530;11.754;2023-03-03T10:17:36;100863.75;;;18.80;44.47
40075;BME280;26529;51.530;11.754;2023-03-03T10:23:06;100855.78;;;18.80;44.35
40075;BME280;26529;51.530;11.754;2023-03-03T10:25:52;100862.91;;;18.79;44.62
40075;BME280;26529;51.530;11.754;2023-03-03T10:34:12;100864.69;;;18.79;44.39
40075;BME280;26529;51.530;11.754;2023-03-03T10:36:50;100870.00;;;18.79;44.30
40075;BME280;26529;51.530;11.754;2023-03-03T10:39:47;100883.34;;;18.77;44.31
40075;BME280;26529;51.530;11.754;2023-03-03T10:42:52;100885.00;;;18.80;44.41
40075;BME280;26529;51.530;11.754;2023-03-03T10:48:11;100873.59;;;18.78;44.35
40075;BME280;26529;51.530;11.754;2023-03-03T10:53:47;100879.84;;;18.77;44.70
40075;BME280;26529;51.530;11.754;2023-03-03T10:56:28;100877.19;;;18.77;44.49
40075;BME280;26529;51.530;11.754;2023-03-03T10:59:04;100874.53;;;18.77;44.40
40075;BME280;26529;51.530;11.754;2023-03-03T11:01:48;100870.19;;;18.76;44.33
40075;BME280;26529;51.530;11.754;2023-03-03T11:04:48;100867.41;;;18.77;44.29
40075;BME280;26529;51.530;11.754;2023-03-03T11:07:30;100861.25;;;18.77;44.62
40075;BME280;26529;51.530;11.754;2023-03-03T11:15:38;100864.06;;;18.74;44.50
40075;BME280;26529;51.530;11.754;2023-03-03T11:18:19;100866.72;;;18.74;44.37
40075;BME280;26529;51.530;11.754;2023-03-03T11:23:49;100866.72;;;18.74;44.63
40075;BME280;26529;51.530;11.754;2023-03-03T11:29:31;100866.72;;;18.74;44.42
40075;BME280;26529;51.530;11.754;2023-03-03T11:40:44;100865.88;;;18.73;44.51
40075;BME280;26529;51.530;11.754;2023-03-03T11:43:19;100850.88;;;18.72;44.63
40075;BME280;26529;51.530;11.754;2023-03-03T11:45:51;100863.28;;;18.71;44.54
40075;BME280;26529;51.530;11.754;2023-03-03T11:54:31;100858.94;;;18.70;44.50
40075;BME280;26529;51.530;11.754;2023-03-03T12:02:33;100847.53;;;18.68;44.48
40075;BME280;26529;51.530;11.754;2023-03-03T12:05:24;100842.22;;;18.68;44.45
40075;BME280;26529;51.530;11.754;2023-03-03T12:08:01;100837.75;;;18.69;44.53
40075;BME280;26529;51.530;11.754;2023-03-03T12:10:45;100833.44;;;18.66;44.57
40075;BME280;26529;51.530;11.754;2023-03-03T12:19:00;100832.44;;;18.69;44.53
40075;BME280;26529;51.530;11.754;2023-03-03T12:24:21;100834.25;;;18.68;44.54
40075;BME280;26529;51.530;11.754;2023-03-03T12:27:02;100835.19;;;18.67;44.56
40075;BME280;26529;51.530;11.754;2023-03-03T12:29:51;100831.59;;;18.68;44.36
40075;BME280;26529;51.530;11.754;2023-03-03T12:46:24;100818.16;;;19.05;43.97
40075;BME280;26529;51.530;11.754;2023-03-03T12:48:53;100819.81;;;19.08;43.69
40075;BME280;26529;51.530;11.754;2023-03-03T12:51:57;100813.34;;;19.12;43.67
40075;BME280;26529;51.530;11.754;2023-03-03T12:57:22;100811.47;;;19.14;43.70
40075;BME280;26529;51.530;11.754;2023-03-03T13:00:14;100822.97;;;19.15;43.86
40075;BME280;26529;51.530;11.754;2023-03-03T13:02:58;100816.78;;;19.14;43.57
40075;BME280;26529;51.530;11.754;2023-03-03T13:05:57;100814.91;;;19.16;43.81
40075;BME280;26529;51.530;11.754;2023-03-03T13:08:31;100808.81;;;19.14;43.67
40075;BME280;26529;51.530;11.754;2023-03-03T13:11:20;100811.47;;;19.14;43.91
40075;BME280;26529;51.530;11.754;2023-03-03T13:14:03;100807.88;;;19.15;43.72
40075;BME280;26529;51.530;11.754;2023-03-03T13:16:44;100807.38;;;19.24;43.67
40075;BME280;26529;51.530;11.754;2023-03-03T13:19:40;100797.75;;;19.38;43.64
40075;BME280;26529;51.530;11.754;2023-03-03T13:22:30;100802.38;;;19.50;43.05
40075;BME280;26529;51.530;11.754;2023-03-03T13:27:51;100801.34;;;19.69;42.92
40075;BME280;26529;51.530;11.754;2023-03-03T13:30:22;100801.66;;;19.79;42.93
40075;BME280;26529;51.530;11.754;2023-03-03T13:35:42;100792.53;;;19.99;42.58
40075;BME280;26529;51.530;11.754;2023-03-03T13:38:12;100796.53;;;20.06;42.72
40075;BME280;26529;51.530;11.754;2023-03-03T13:40:40;100791.97;;;20.09;42.43
40075;BME280;26529;51.530;11.754;2023-03-03T13:43:23;100798.25;;;20.08;42.68
40075;BME280;26529;51.530;11.754;2023-03-03T13:46:13;100787.03;;;20.02;42.79
40075;BME280;26529;51.530;11.754;2023-03-03T13:51:40;100801.09;;;20.04;42.76
40075;BME280;26529;51.530;11.754;2023-03-03T13:54:17;100799.41;;;20.03;42.82
40075;BME280;26529;51.530;11.754;2023-03-03T13:56:58;100792.38;;;20.02;42.97
40075;BME280;26529;51.530;11.754;2023-03-03T13:59:41;100792.25;;;20.04;42.98
40075;BME280;26529;51.530;11.754;2023-03-03T14:05:16;100792.09;;;20.07;43.08
40075;BME280;26529;51.530;11.754;2023-03-03T14:07:51;100793.88;;;20.06;43.01
40075;BME280;26529;51.530;11.754;2023-03-03T14:10:35;100789.50;;;20.05;42.95
40075;BME280;26529;51.530;11.754;2023-03-03T14:13:11;100792.16;;;20.05;42.91
40075;BME280;26529;51.530;11.754;2023-03-03T14:16:04;100785.13;;;20.04;43.01
40075;BME280;26529;51.530;11.754;2023-03-03T14:18:50;100778.94;;;20.04;42.96
40075;BME280;26529;51.530;11.754;2023-03-03T14:21:30;100778.88;;;20.05;42.97
40075;BME280;26529;51.530;11.754;2023-03-03T14:26:56;100774.97;;;20.11;42.88
40075;BME280;26529;51.530;11.754;2023-03-03T14:31:52;100753.59;;;20.27;42.65
40075;BME280;26529;51.530;11.754;2023-03-03T14:34:38;100761.81;;;20.39;42.45
40075;BME280;26529;51.530;11.754;2023-03-03T14:37:28;100756.09;;;20.45;42.25
40075;BME280;26529;51.530;11.754;2023-03-03T14:45:30;100757.22;;;20.55;42.17
40075;BME280;26529;51.530;11.754;2023-03-03T14:47:57;100748.78;;;20.49;42.36
40075;BME280;26529;51.530;11.754;2023-03-03T14:50:33;100751.53;;;20.47;42.50
40075;BME280;26529;51.530;11.754;2023-03-03T14:53:20;100745.44;;;20.45;42.56
40075;BME280;26529;51.530;11.754;2023-03-03T14:55:51;100742.88;;;20.43;42.55
40075;BME280;26529;51.530;11.754;2023-03-03T14:58:39;100742.03;;;20.43;42.52
40075;BME280;26529;51.530;11.754;2023-03-03T15:01:32;100736.50;;;20.46;42.53
40075;BME280;26529;51.530;11.754;2023-03-03T15:04:01;100736.50;;;20.46;42.54
40075;BME280;26529;51.530;11.754;2023-03-03T15:06:34;100732.88;;;20.47;42.60
40075;BME280;26529;51.530;11.754;2023-03-03T15:12:23;100735.53;;;20.47;42.53
40075;BME280;26529;51.530;11.754;2023-03-03T15:14:51;100731.16;;;20.46;42.51
40075;BME280;26529;51.530;11.754;2023-03-03T15:17:24;100731.16;;;20.46;42.70
40075;BME280;26529;51.530;11.754;2023-03-03T15:25:14;100732.72;;;20.50;42.60
40075;BME280;26529;51.530;11.754;2023-03-03T15:28:21;100729.09;;;20.51;42.60
40075;BME280;26529;51.530;11.754;2023-03-03T15:36:33;100725.91;;;20.59;42.34
40075;BME280;26529;51.530;11.754;2023-03-03T15:39:24;100719.56;;;20.61;42.36
40075;BME280;26529;51.530;11.754;2023-03-03T15:44:59;100704.53;;;20.60;42.33
40075;BME280;26529;51.530;11.754;2023-03-03T15:47:38;100701.84;;;20.60;42.61
40075;BME280;26529;51.530;11.754;2023-03-03T15:52:54;100695.56;;;20.61;42.24
40075;BME280;26529;51.530;11.754;2023-03-03T15:55:30;100697.47;;;20.59;42.59
40075;BME280;26529;51.530;11.754;2023-03-03T15:58:40;100692.91;;;20.61;42.47
40075;BME280;26529;51.530;11.754;2023-03-03T16:01:24;100692.53;;;20.68;42.34
40075;BME280;26529;51.530;11.754;2023-03-03T16:04:19;100696.50;;;20.75;42.02
40075;BME280;26529;51.530;11.754;2023-03-03T16:09:30;100692.59;;;20.81;42.17
40075;BME280;26529;51.530;11.754;2023-03-03T16:14:55;100703.56;;;20.76;42.22
40075;BME280;26529;51.530;11.754;2023-03-03T16:17:45;100701.00;;;20.74;42.18
40075;BME280;26529;51.530;11.754;2023-03-03T16:20:23;100708.13;;;20.74;42.43
40075;BME280;26529;51.530;11.754;2023-03-03T16:30:49;100712.69;;;20.72;42.37
40075;BME280;26529;51.530;11.754;2023-03-03T16:38:47;100726.47;;;20.79;42.56
40075;BME280;26529;51.530;11.754;2023-03-03T16:41:20;100721.16;;;20.79;42.32
40075;BME280;26529;51.530;11.754;2023-03-03T16:46:45;100729.06;;;20.80;42.33
40075;BME280;26529;51.530;11.754;2023-03-03T16:49:39;100731.81;;;20.79;42.35
40075;BME280;26529;51.530;11.754;2023-03-03T16:52:13;100731.94;;;20.77;42.39
40075;BME280;26529;51.530;11.754;2023-03-03T16:54:47;100726.69;;;20.76;42.58
40075;BME280;26529;51.530;11.754;2023-03-03T17:00:27;100735.56;;;20.76;42.47
40075;BME280;26529;51.530;11.754;2023-03-03T17:03:17;100734.59;;;20.77;42.44
40075;BME280;26529;51.530;11.754;2023-03-03T17:08:57;100744.19;;;20.80;42.19
40075;BME280;26529;51.530;11.754;2023-03-03T17:11:44;100745.03;;;20.80;42.42
40075;BME280;26529;51.530;11.754;2023-03-03T17:14:36;100747.72;;;20.80;42.32
40075;BME280;26529;51.530;11.754;2023-03-03T17:17:30;100750.47;;;20.79;42.31
40075;BME280;26529;51.530;11.754;2023-03-03T17:22:56;100741.53;;;20.80;42.50
40075;BME280;26529;51.530;11.754;2023-03-03T17:26:15;100742.28;;;20.82;42.29